Flight Track Log - Related Links

Times and Time Zones

All times are in EDT time to prevent confusion due to time zone crossing. See the EJA839 flight status page for this flight to view local times or setup timezone preferences in your user account.

Time Position Orientation Groundspeed Altitude Reporting Facility
EDT Latitude Longitude Course Direction KTS MPH feet Rate Location/Type
Thu 03:45:27 PM 32.1203 -110.9453 291° West 172 198 3,200  Level Albuquerque Center
Thu 03:46:09 PM 32.1367 -110.9964 291° West 219 252 5,200 1,748 Climbing Albuquerque Center
Thu 03:47:10 PM 32.1581 -111.0622 291° West 253 291 6,200 2,146 Climbing Albuquerque Center
Thu 03:48:12 PM 32.1825 -111.1389 291° West 252 290 9,600 3,968 Climbing Albuquerque Center
Thu 03:49:14 PM 32.2200 -111.2356 295° West 265 305 14,400 3,339 Climbing Albuquerque Center
Thu 03:50:16 PM 32.2603 -111.3092 303° West 267 307 16,500 1,887 Climbing Albuquerque Center
Thu 03:51:18 PM 32.3089 -111.3942 304° West 302 348 18,300 1,824 Climbing Albuquerque Center
Thu 03:52:21 PM 32.3597 -111.4778 306° West 311 358 20,300 1,440 Climbing Albuquerque Center
Thu 03:53:23 PM 32.4294 -111.5481 320° Northwest 333 383 21,300 968 Climbing Albuquerque Center
Thu 03:54:25 PM 32.5150 -111.5992 333° Northwest 343 395 22,300 1,065 Climbing Albuquerque Center
Thu 03:55:27 PM 32.6128 -111.6667 330° Northwest 342 394 23,500 1,210 Climbing Albuquerque Center
Thu 03:56:29 PM 32.6658 -111.7578 305° West 332 382 24,800 1,597 Climbing Albuquerque Center
Thu 03:57:31 PM 32.7164 -111.8522 302° West 337 388 26,800 1,935 Climbing Albuquerque Center
Thu 03:58:33 PM 32.7647 -111.9456 302° West 333 383 28,800 1,935 Climbing Albuquerque Center
Thu 03:59:35 PM 32.8139 -112.0356 303° West 329 379 30,800 1,887 Climbing Albuquerque Center
Thu 04:00:37 PM 32.8608 -112.1242 302° West 320 368 32,700 1,548 Climbing Albuquerque Center
Thu 04:01:39 PM 32.9061 -112.2108 302° West 312 359 34,000 629 Climbing Albuquerque Center
Thu 04:02:41 PM 32.9581 -112.3103 302° West 333 383 34,000  Level Albuquerque Center
Thu 04:03:43 PM 33.0214 -112.4303 302° West 354 407 34,000  Level Albuquerque Center
Thu 04:04:45 PM 33.0742 -112.5286 303° West 355 409 34,000  Level Albuquerque Center
Thu 04:05:47 PM 33.1272 -112.6278 303° West 355 409 34,000  Level Albuquerque Center
Thu 04:06:49 PM 33.1789 -112.7272 302° West 355 409 34,000  Level Albuquerque Center
Thu 04:07:51 PM 33.2317 -112.8297 302° West 358 412 34,000  Level Albuquerque Center
Thu 04:08:53 PM 33.2944 -112.9522 302° West 361 415 34,000  Level Albuquerque Center
Thu 04:09:56 PM 33.3472 -113.0533 302° West 361 415 34,000  Level Albuquerque Center
Thu 04:10:58 PM 33.4006 -113.1525 303° West 359 413 34,000  Level Albuquerque Center
Thu 04:12:00 PM 33.4536 -113.2558 302° West 363 418 34,000  Level Albuquerque Center
Thu 04:13:02 PM 33.5067 -113.3583 302° West 364 419 34,000  Level Albuquerque Center
Thu 04:14:04 PM 33.5700 -113.4811 302° West 363 418 34,000  Level Albuquerque Center
Thu 04:15:06 PM 33.6011 -113.5964 288° West 372 428 34,000  Level Albuquerque Center
Thu 04:16:08 PM 33.6231 -113.7175 282° West 365 420 34,000  Level Albuquerque Center
Thu 04:17:10 PM 33.6461 -113.8356 283° West 364 419 34,000  Level Albuquerque Center
Thu 04:18:12 PM 33.6664 -113.9544 282° West 364 419 34,000  Level Albuquerque Center
Thu 04:19:14 PM 33.6858 -114.0769 281° West 370 426 34,000 -290 Level Albuquerque Center
Thu 04:20:16 PM 33.6975 -114.2203 276° West 372 428 33,400 -968 Descending Albuquerque Center
Thu 04:21:18 PM 33.7081 -114.3436 276° West 373 429 32,000 -672 Descending Albuquerque Center
Thu 04:22:21 PM 33.7208 -114.4822 276° West 383 441 32,000  Level Los Center
Thu 04:23:23 PM 33.7322 -114.6122 276° West 391 450 32,000 -290 Level Los Center
Thu 04:24:25 PM 33.7428 -114.7394 276° West 385 443 31,400 -871 Descending Los Center
Thu 04:25:27 PM 33.7525 -114.8672 275° West 386 444 30,200 -672 Descending Los Center
Thu 04:26:30 PM 33.7639 -114.9956 276° West 387 445 30,000 -96 Descending Los Center
Thu 04:27:32 PM 33.7756 -115.1511 275° West 392 451 30,000  Level Los Center
Thu 04:28:34 PM 33.7856 -115.2814 275° West 394 453 30,000  Level Los Center
Thu 04:29:36 PM 33.7961 -115.4119 276° West 394 453 30,000  Level Los Center
Thu 04:30:38 PM 33.8064 -115.5425 275° West 395 455 30,000  Level Los Center
Thu 04:31:40 PM 33.8172 -115.6731 276° West 393 452 30,000  Level Los Center
Thu 04:32:42 PM 33.8278 -115.8306 275° West 396 456 30,000  Level Los Center
Thu 04:33:44 PM 33.8375 -115.9611 275° West 395 455 30,000 -624 Level Los Center
Thu 04:34:47 PM 33.8467 -116.0928 275° West 397 457 28,700 -1,584 Descending Los Center
Thu 04:35:49 PM 33.8556 -116.2222 275° West 393 452 26,700 -1,984 Descending Los Center
Thu 04:36:51 PM 33.8642 -116.3472 275° West 380 437 24,600 -2,226 Descending Los Center
Thu 04:37:53 PM 33.8722 -116.4694 275° West 370 426 22,100 -2,710 Descending Los Center
Thu 04:38:55 PM 33.8797 -116.6122 274° West 360 414 19,000 -2,855 Descending Los Center
Thu 04:39:57 PM 33.8847 -116.7269 273° West 347 399 16,200 -2,419 Descending Los Center
Thu 04:40:59 PM 33.8889 -116.8389 273° West 340 391 14,000 -1,361 Descending Los Center
Thu 04:41:34 PM 33.9000 -116.9167 280° West 326 375 14,000 -742 Level Southern TRACON
Thu 04:42:28 PM 33.9333 -117.0000 296° West 324 373 12,900 -1,686 Descending Southern TRACON
Thu 04:43:35 PM 33.9667 -117.1167 289° West 320 368 10,600 -1,370 Descending Southern TRACON
Thu 04:44:35 PM 34.0000 -117.2167 292° West 324 373 10,000 -450 Descending Southern TRACON
Thu 04:45:35 PM 34.0167 -117.3167 281° West 296 341 9,700 -650 Descending Southern TRACON
Thu 04:46:35 PM 34.0167 -117.4167 270° West 279 321 8,700 -843 Descending Southern TRACON
Thu 04:47:36 PM 34.0333 -117.5000 284° West 277 319 8,000 -347 Descending Southern TRACON
Thu 04:48:36 PM 34.0500 -117.6000 281° West 270 311 8,000 -105 Level Southern TRACON
Thu 04:49:30 PM 34.0667 -117.6667 287° West 251 289 7,800 -730 Descending Southern TRACON
Thu 04:50:31 PM 34.0667 -117.7667 270° West 261 300 6,600 -893 Descending Southern TRACON
Thu 04:51:31 PM 34.0833 -117.8500 284° West 261 300 6,000 -300 Descending Southern TRACON
Thu 04:52:31 PM 34.1000 -117.9333 284° West 264 304 6,000  Level Southern TRACON
Thu 04:53:31 PM 34.1167 -118.0167 284° West 267 307 6,000 -800 Level Southern TRACON
Thu 04:54:31 PM 34.1167 -118.1167 270° West 260 299 4,400 -952 Descending Southern TRACON
Thu 04:55:37 PM 34.1333 -118.2000 284° West 255 293 4,000 -250 Descending Southern TRACON
Thu 04:56:31 PM 34.1258 -118.2556 261° West 252 290 3,900 -724 Descending Los Center
Thu 04:57:33 PM 34.0947 -118.3342 244° Southwest 227 261 2,600 -1,065 Descending Los Center
Thu 04:58:35 PM 34.0636 -118.3892 236° Southwest 211 243 1,700 -823 Descending Los Center
Thu 04:59:37 PM 34.0425 -118.4206 231° Southwest 152 175 900 -720 Descending Los Center
Thu 05:00:40 PM 34.0211 -118.4456 224° Southwest 125 144 200 -667 Descending Los Center
Thu 05:02:00 PM 34.0158 -118.4513 220° Southwest  Level Estimated
Thu 05:09:00 PM 34.0158 -118.4513 220° Southwest  Level Estimated

Login

Don't have an account? Register now (free) for customized features, flight alerts, and more!